Time;durP1;ratioP1;P1;durP2;ratioP2;P2;SDS_P1;SDS_P2;PMS_P1;PMS_P2;Temp;Humidity;BMP_temperature;BMP_pressure;BME280_temperature;BME280_humidity;BME280_pressure;Samples;Min_cycle;Max_cycle;Signal;HPM_P1;HPM_P2
2023/07/26 00:00:05;;;;;;;6.87;2.45;;;;;;;20.44;84.00;96971.69;4365490;32;20092;-80
2023/07/26 00:02:32;;;;;;;6.10;2.20;;;;;;;20.26;85.17;96955.16;4365686;32;20110;-80
2023/07/26 00:04:59;;;;;;;7.47;2.37;;;;;;;19.96;88.98;96956.38;4365551;32;20430;-80
2023/07/26 00:07:26;;;;;;;6.62;2.53;;;;;;;20.84;83.90;96937.06;4364718;32;20102;-80
2023/07/26 00:09:53;;;;;;;6.22;2.00;;;;;;;20.92;83.25;96942.31;4365600;32;20135;-80
2023/07/26 00:12:20;;;;;;;9.55;2.78;;;;;;;21.11;82.44;96948.31;4364501;32;20118;-80
2023/07/26 00:14:47;;;;;;;5.90;2.30;;;;;;;20.88;82.88;96940.19;4365218;32;20083;-80
2023/07/26 00:17:14;;;;;;;6.97;2.67;;;;;;;20.25;87.65;96937.81;4365328;32;20155;-80
2023/07/26 00:19:41;;;;;;;8.27;2.37;;;;;;;20.37;87.51;96936.56;4365570;32;20082;-80
2023/07/26 00:22:08;;;;;;;6.70;2.28;;;;;;;20.17;86.84;96921.03;4363977;32;20095;-80
2023/07/26 00:24:35;;;;;;;7.62;2.53;;;;;;;19.90;91.08;96911.53;4365458;32;20117;-80
2023/07/26 00:27:02;;;;;;;7.00;2.30;;;;;;;20.91;84.19;96918.88;4365517;32;20087;-80
2023/07/26 00:29:29;;;;;;;6.28;2.37;;;;;;;20.08;88.06;96914.09;4364969;32;20109;-80
2023/07/26 00:31:56;;;;;;;9.18;2.50;;;;;;;20.26;87.99;96895.72;4365537;32;20114;-81
2023/07/26 00:34:23;;;;;;;7.97;2.33;;;;;;;20.78;84.95;96898.34;4365268;32;20151;-80
2023/07/26 00:36:49;;;;;;;6.37;2.40;;;;;;;20.33;87.19;96899.41;4365102;32;20435;-80
2023/07/26 00:39:18;;;;;;;6.18;2.35;;;;;;;20.62;85.19;96899.09;4365258;32;20079;-80
2023/07/26 00:41:45;;;;;;;6.32;2.22;;;;;;;20.51;85.38;96894.94;4365440;32;20469;-80
2023/07/26 00:44:12;;;;;;;7.97;2.47;;;;;;;20.75;84.15;96889.00;4365000;32;20510;-80
2023/07/26 00:46:39;;;;;;;7.12;2.17;;;;;;;20.54;84.41;96891.19;4365380;32;20108;-80
2023/07/26 00:49:07;;;;;;;8.40;2.40;;;;;;;21.52;79.07;96904.69;4351660;32;20109;-80
2023/07/26 00:51:35;;;;;;;6.97;2.22;;;;;;;21.46;78.79;96905.31;4365436;32;20162;-80
2023/07/26 00:54:03;;;;;;;6.25;2.33;;;;;;;22.01;76.31;96905.56;4365290;32;20109;-81
2023/07/26 00:56:30;;;;;;;5.95;2.30;;;;;;;21.84;76.24;96911.78;4363516;32;20097;-81
2023/07/26 00:58:58;;;;;;;6.12;2.35;;;;;;;21.98;75.02;96912.94;4365163;32;20101;-80
2023/07/26 01:01:26;;;;;;;5.25;2.15;;;;;;;21.51;78.15;96917.00;4365340;32;20103;-80
2023/07/26 01:03:53;;;;;;;5.25;2.10;;;;;;;22.02;75.19;96915.06;4363726;32;20166;-80
2023/07/26 01:06:33;;;;;;;6.75;2.17;;;;;;;21.57;77.73;96911.06;4365184;32;20505;-80
2023/07/26 01:09:32;;;;;;;6.28;2.10;;;;;;;21.11;81.25;96903.72;4364024;32;20126;-80
2023/07/26 01:12:10;;;;;;;;;;;;;;;21.78;76.31;96923.75;4364132;32;20103;-80
2023/07/26 01:15:02;;;;;;;8.27;2.47;;;;;;;21.44;78.60;96913.34;4364091;32;20008;-80
2023/07/26 01:17:29;;;;;;;7.95;2.67;;;;;;;21.30;78.62;96919.22;4364905;32;20542;-80
2023/07/26 01:19:56;;;;;;;6.40;2.35;;;;;;;21.95;75.13;96912.28;4365146;32;20102;-80
2023/07/26 01:22:23;;;;;;;7.72;2.22;;;;;;;22.36;73.06;96916.72;4365241;32;20089;-80
2023/07/26 01:24:50;;;;;;;5.40;2.22;;;;;;;21.49;75.39;96916.34;4364771;32;20109;-80
2023/07/26 01:27:17;;;;;;;5.75;2.15;;;;;;;21.90;74.83;96924.25;4365054;32;20569;-80
2023/07/26 01:29:44;;;;;;;5.95;2.10;;;;;;;22.11;72.44;96926.41;4365075;32;20395;-80
2023/07/26 01:32:14;;;;;;;5.80;2.87;;;;;;;22.58;70.12;96937.06;4364694;32;20430;-80
2023/07/26 01:34:41;;;;;;;9.70;2.20;;;;;;;21.70;73.63;96939.50;4363787;32;20417;-80
2023/07/26 01:37:08;;;;;;;5.62;2.10;;;;;;;21.74;74.10;96937.37;4363907;32;20166;-80
2023/07/26 01:39:35;;;;;;;5.90;2.08;;;;;;;21.05;77.67;96927.00;4363452;32;20101;-80
2023/07/26 01:42:03;;;;;;;6.90;2.10;;;;;;;20.93;78.91;96916.94;4363908;32;20118;-80
2023/07/26 01:44:36;;;;;;;5.55;2.20;;;;;;;20.59;81.93;96915.13;4364922;32;20102;-80
2023/07/26 01:47:04;;;;;;;5.85;2.40;;;;;;;20.98;80.49;96918.09;4364714;32;20122;-80
2023/07/26 01:49:31;;;;;;;5.72;2.25;;;;;;;20.59;82.93;96906.44;4364792;32;20105;-80
2023/07/26 01:51:58;;;;;;;9.23;2.40;;;;;;;20.70;82.83;96914.03;4365087;32;20110;-80
2023/07/26 01:54:25;;;;;;;6.65;2.33;;;;;;;20.94;80.96;96916.75;4364617;32;20117;-80
2023/07/26 01:56:52;;;;;;;7.43;2.25;;;;;;;20.37;84.93;96908.56;4364521;32;20409;-80
2023/07/26 01:59:19;;;;;;;6.00;2.10;;;;;;;20.08;86.28;96913.28;4364457;32;20105;-80
2023/07/26 02:01:45;;;;;;;7.87;2.75;;;;;;;20.69;82.38;96907.97;4364897;32;20176;-80
2023/07/26 02:04:12;;;;;;;6.65;2.50;;;;;;;20.00;87.29;96908.00;4364849;32;20153;-80
2023/07/26 02:06:39;;;;;;;6.22;2.80;;;;;;;20.57;82.98;96917.09;4364556;32;20101;-80
2023/07/26 02:09:06;;;;;;;5.78;2.22;;;;;;;20.20;83.32;96907.66;4364584;32;20418;-80
2023/07/26 02:11:35;;;;;;;5.43;2.25;;;;;;;20.32;81.76;96917.88;4364907;32;20113;-80
2023/07/26 02:14:02;;;;;;;5.15;1.90;;;;;;;20.37;81.43;96920.84;4364338;32;20126;-80
2023/07/26 02:16:29;;;;;;;4.20;1.90;;;;;;;20.18;81.63;96914.81;4364607;32;20117;-80
2023/07/26 02:18:56;;;;;;;5.45;1.70;;;;;;;20.01;80.92;96910.47;4364583;32;20087;-80
2023/07/26 02:21:23;;;;;;;5.65;1.83;;;;;;;20.15;80.10;96914.31;4364350;32;20593;-80
2023/07/26 02:23:50;;;;;;;4.57;1.92;;;;;;;20.10;79.28;96914.78;4363364;32;20529;-80
2023/07/26 02:26:17;;;;;;;3.95;1.70;;;;;;;19.68;81.76;96926.88;4364613;32;20100;-80
2023/07/26 02:28:43;;;;;;;4.53;1.80;;;;;;;20.04;79.30;96925.03;4364115;32;20462;-80
2023/07/26 02:31:10;;;;;;;4.60;1.95;;;;;;;19.69;80.66;96934.56;4364011;32;20114;-80
2023/07/26 02:33:37;;;;;;;5.28;1.80;;;;;;;20.02;77.24;96938.28;4364526;32;20119;-80
2023/07/26 02:36:04;;;;;;;4.95;1.50;;;;;;;20.21;74.87;96945.97;4364121;32;20400;-80
2023/07/26 02:38:31;;;;;;;6.03;1.45;;;;;;;19.74;75.09;96965.50;4364330;32;20079;-80
2023/07/26 02:40:58;;;;;;;8.48;1.75;;;;;;;19.47;77.57;96963.72;4364435;32;20100;-80
2023/07/26 02:43:25;;;;;;;4.37;1.62;;;;;;;19.83;74.92;96967.22;4364060;32;20109;-80
2023/07/26 02:46:06;;;;;;;2.33;1.10;;;;;;;19.39;76.58;96968.88;4364347;32;20764;-80
2023/07/26 02:48:33;;;;;;;4.37;1.20;;;;;;;19.46;73.69;96964.69;4363864;32;20515;-80
2023/07/26 02:51:00;;;;;;;3.55;1.08;;;;;;;19.31;75.19;96969.59;4364399;32;20117;-80
2023/07/26 02:53:27;;;;;;;3.83;1.52;;;;;;;19.34;73.67;96961.44;4364196;32;20091;-80
2023/07/26 02:55:54;;;;;;;3.20;1.20;;;;;;;19.00;76.20;96964.66;4363664;32;20443;-80
2023/07/26 02:58:21;;;;;;;3.78;1.30;;;;;;;19.28;75.54;96967.28;4364166;32;20109;-80
2023/07/26 03:00:52;;;;;;;2.75;1.33;;;;;;;18.89;76.13;96961.38;4359505;32;148660;-80
2023/07/26 03:03:19;;;;;;;2.62;1.50;;;;;;;19.22;74.27;96968.66;4363843;32;20107;-80
2023/07/26 03:05:46;;;;;;;3.20;1.30;;;;;;;18.88;75.52;96973.63;4364101;32;20148;-80
2023/07/26 03:08:13;;;;;;;4.97;1.35;;;;;;;18.72;76.77;96974.25;4363956;32;20481;-80
2023/07/26 03:10:40;;;;;;;2.53;1.10;;;;;;;19.09;74.48;96978.66;4363590;32;20099;-80
2023/07/26 03:13:07;;;;;;;1.80;1.10;;;;;;;19.47;72.78;96982.03;4364079;32;20174;-80
2023/07/26 03:15:38;;;;;;;5.22;1.40;;;;;;;19.10;75.22;96987.31;4363808;32;20494;-80
2023/07/26 03:18:05;;;;;;;2.35;1.10;;;;;;;18.87;76.06;96979.84;4363717;32;20110;-80
2023/07/26 03:20:32;;;;;;;4.20;1.15;;;;;;;18.86;74.96;96980.81;4363882;32;20111;-80
2023/07/26 03:22:59;;;;;;;3.60;1.20;;;;;;;19.26;74.64;97004.03;4363908;32;20683;-80
2023/07/26 03:25:26;;;;;;;3.78;1.10;;;;;;;19.45;73.10;97002.28;4363487;32;20095;-80
2023/07/26 03:27:53;;;;;;;3.10;1.20;;;;;;;18.69;77.25;97003.25;4363698;32;20113;-80
2023/07/26 03:30:20;;;;;;;3.10;1.30;;;;;;;18.81;76.96;97003.91;4363767;32;20139;-80
2023/07/26 03:32:47;;;;;;;2.65;1.45;;;;;;;18.81;75.74;96993.47;4363514;32;20142;-80
2023/07/26 03:35:14;;;;;;;2.53;1.10;;;;;;;19.05;75.51;97003.44;4363537;32;20095;-80
2023/07/26 03:37:41;;;;;;;3.45;1.00;;;;;;;18.72;76.84;96989.09;4363187;32;20154;-80
2023/07/26 03:40:08;;;;;;;2.87;0.93;;;;;;;19.46;73.10;97002.16;4363604;32;20468;-80
2023/07/26 03:42:35;;;;;;;3.42;1.17;;;;;;;18.87;75.70;96998.13;4363678;32;20489;-80
2023/07/26 03:45:02;;;;;;;4.30;1.00;;;;;;;19.27;74.75;97000.44;4365424;32;20087;-80
2023/07/26 03:47:29;;;;;;;3.45;1.20;;;;;;;19.07;74.31;97009.34;4365697;32;20134;-80
2023/07/26 03:49:56;;;;;;;2.50;1.20;;;;;;;18.92;75.15;96976.78;4365817;32;20422;-80
2023/07/26 03:52:23;;;;;;;3.35;1.00;;;;;;;19.10;73.49;96982.09;4365433;32;20106;-80
2023/07/26 03:54:50;;;;;;;3.87;1.23;;;;;;;18.91;74.47;96985.59;4365675;32;20145;-80
2023/07/26 03:57:17;;;;;;;3.30;1.00;;;;;;;18.83;74.73;96969.81;4365324;32;20442;-80
2023/07/26 03:59:44;;;;;;;2.55;1.12;;;;;;;18.76;75.52;96966.94;4365346;32;20092;-80
2023/07/26 04:02:11;;;;;;;2.70;1.15;;;;;;;18.88;74.19;96968.41;4365684;32;20160;-80
2023/07/26 04:04:38;;;;;;;2.92;1.10;;;;;;;18.76;74.51;96967.75;4365628;32;20109;-80
2023/07/26 04:07:05;;;;;;;1.48;0.85;;;;;;;18.94;73.86;96985.31;4365377;32;20477;-80
2023/07/26 04:09:32;;;;;;;1.80;0.90;;;;;;;18.49;76.42;96978.09;4365549;32;20095;-80
2023/07/26 04:11:59;;;;;;;2.70;1.20;;;;;;;18.70;76.03;96989.22;4365661;32;20113;-80
2023/07/26 04:14:26;;;;;;;3.97;1.20;;;;;;;18.52;77.28;96977.84;4365197;32;20098;-80
2023/07/26 04:16:53;;;;;;;3.25;1.23;;;;;;;18.95;75.97;96982.56;4365535;32;20147;-80
2023/07/26 04:19:20;;;;;;;2.58;1.00;;;;;;;18.81;75.78;96977.78;4365455;32;20130;-80
2023/07/26 04:21:47;;;;;;;2.45;1.05;;;;;;;18.55;77.37;96979.34;4365454;32;20126;-80
2023/07/26 04:24:14;;;;;;;3.53;1.00;;;;;;;18.88;73.97;96973.63;4365376;32;20106;-80
2023/07/26 04:26:41;;;;;;;2.62;0.90;;;;;;;18.92;74.02;96968.94;4365242;32;20083;-80
2023/07/26 04:29:08;;;;;;;6.47;1.55;;;;;;;18.53;76.50;96969.03;4365346;32;20114;-80
2023/07/26 04:31:35;;;;;;;3.15;1.10;;;;;;;18.60;75.54;96977.94;4365538;32;20087;-80
2023/07/26 04:34:02;;;;;;;2.55;1.00;;;;;;;18.83;74.18;96985.50;4365079;32;20160;-80
2023/07/26 04:36:29;;;;;;;2.90;1.10;;;;;;;19.01;71.92;96981.97;4365335;32;20103;-80
2023/07/26 04:38:56;;;;;;;2.70;1.00;;;;;;;19.15;71.70;96985.94;4365283;32;20451;-80
2023/07/26 04:41:23;;;;;;;3.37;1.10;;;;;;;18.76;73.07;96961.72;4365100;32;20094;-80
2023/07/26 04:43:50;;;;;;;1.90;0.95;;;;;;;19.01;72.65;96955.00;4365305;32;20156;-80
2023/07/26 04:46:17;;;;;;;4.28;1.20;;;;;;;18.38;74.22;96960.81;4365333;32;20098;-80
2023/07/26 04:48:44;;;;;;;2.28;1.00;;;;;;;18.81;73.60;96971.72;4364805;32;20103;-81
2023/07/26 04:51:11;;;;;;;2.12;1.10;;;;;;;18.45;74.60;96969.72;4365448;32;20087;-80
2023/07/26 04:53:38;;;;;;;1.65;1.00;;;;;;;18.59;74.39;96968.47;4364894;32;20100;-80
2023/07/26 04:56:05;;;;;;;3.70;1.00;;;;;;;18.62;74.59;96964.75;4364699;32;20123;-80
2023/07/26 04:58:32;;;;;;;2.72;1.05;;;;;;;18.54;74.97;96972.47;4365337;32;20399;-80
2023/07/26 05:00:59;;;;;;;2.97;1.25;;;;;;;18.84;73.29;96972.28;4365298;32;20117;-80
2023/07/26 05:03:26;;;;;;;2.40;1.00;;;;;;;19.07;71.89;96977.97;4363725;32;20083;-80
2023/07/26 05:05:53;;;;;;;2.92;1.00;;;;;;;18.66;74.52;97000.94;4365235;32;20430;-81
2023/07/26 05:08:21;;;;;;;1.70;0.82;;;;;;;18.96;72.44;97012.97;4365120;32;20451;-81
2023/07/26 05:10:52;;;;;;;2.12;0.90;;;;;;;18.93;72.67;97020.28;4365039;32;20138;-81
2023/07/26 05:13:19;;;;;;;2.53;0.90;;;;;;;19.41;71.15;97006.16;4365228;32;20100;-81
2023/07/26 05:15:49;;;;;;;2.72;1.00;;;;;;;18.72;73.02;97016.06;4364890;32;20145;-81
2023/07/26 05:18:16;;;;;;;5.10;1.37;;;;;;;19.31;70.02;97012.25;4365055;32;20151;-80
2023/07/26 05:20:43;;;;;;;2.25;1.00;;;;;;;19.01;70.54;97021.19;4365121;32;20487;-80
2023/07/26 05:23:09;;;;;;;2.95;0.80;;;;;;;18.81;71.79;97019.59;4364892;32;20087;-81
2023/07/26 05:25:39;;;;;;;1.35;0.80;;;;;;;19.10;71.08;97018.69;4364961;32;20170;-81
2023/07/26 05:28:06;;;;;;;2.30;0.82;;;;;;;19.37;69.83;97045.69;4364984;32;20134;-81
2023/07/26 05:30:41;;;;;;;2.25;0.88;;;;;;;18.68;71.83;97039.97;4364691;32;20094;-80
2023/07/26 05:33:08;;;;;;;2.00;0.90;;;;;;;18.92;72.79;97057.81;4365140;32;20161;-81
2023/07/26 05:35:35;;;;;;;1.62;0.93;;;;;;;19.39;71.18;97055.19;4364899;32;20083;-81
2023/07/26 05:38:02;;;;;;;1.90;0.93;;;;;;;19.46;70.35;97064.09;4364570;32;20381;-81
2023/07/26 05:40:29;;;;;;;2.40;0.98;;;;;;;19.31;71.66;97077.62;4365085;32;20094;-81
2023/07/26 05:42:56;;;;;;;3.75;0.82;;;;;;;19.69;71.65;97077.66;4365142;32;20251;-81
2023/07/26 05:45:26;;;;;;;2.20;0.93;;;;;;;19.69;71.02;97090.75;4364972;32;20095;-82
2023/07/26 05:47:53;;;;;;;2.15;0.95;;;;;;;19.32;73.18;97074.06;4365103;32;20446;-81
2023/07/26 05:50:20;;;;;;;2.42;1.10;;;;;;;19.23;74.96;97095.00;4366531;32;20126;-78
2023/07/26 05:52:51;;;;;;;1.95;1.00;;;;;;;19.18;75.09;97090.22;4366801;32;20055;-78
2023/07/26 05:55:18;;;;;;;2.10;1.10;;;;;;;19.02;77.47;97103.03;4364684;32;20146;-78
2023/07/26 05:57:45;;;;;;;3.12;1.20;;;;;;;18.74;79.71;97115.22;4368390;32;20133;-80
2023/07/26 06:00:13;;;;;;;1.65;0.80;;;;;;;18.81;77.91;97111.06;4363678;32;20125;-80
2023/07/26 06:02:41;;;;;;;1.30;0.80;;;;;;;18.29;82.11;97113.13;4364700;32;20500;-78
2023/07/26 06:05:08;;;;;;;3.70;1.20;;;;;;;18.64;80.86;97115.22;4364244;32;20099;-81
2023/07/26 06:07:38;;;;;;;1.87;0.93;;;;;;;18.82;80.53;97124.94;4367096;32;20068;-81
2023/07/26 06:10:05;;;;;;;3.45;1.10;;;;;;;18.77;79.74;97123.59;4368004;32;20067;-82
2023/07/26 06:12:32;;;;;;;2.65;1.10;;;;;;;19.00;78.48;97120.66;4365784;32;20106;-81
2023/07/26 06:14:59;;;;;;;2.55;1.08;;;;;;;18.92;79.71;97115.31;4365533;32;20079;-81
2023/07/26 06:17:29;;;;;;;3.15;1.27;;;;;;;18.76;80.29;97115.88;4367776;32;20088;-80
2023/07/26 06:19:56;;;;;;;1.75;1.10;;;;;;;18.33;83.61;97106.66;4377454;32;20066;-80
2023/07/26 06:22:23;;;;;;;1.77;0.95;;;;;;;18.74;81.10;97113.41;4379250;32;20063;-80
2023/07/26 06:24:50;;;;;;;2.08;1.05;;;;;;;18.58;82.61;97117.50;4379218;32;20096;-80
2023/07/26 06:27:29;;;;;;;1.95;1.02;;;;;;;18.53;83.58;97111.87;4378736;32;20088;-79
2023/07/26 06:29:57;;;;;;;3.20;1.17;;;;;;;18.80;81.14;97104.19;4378637;32;20071;-81
2023/07/26 06:32:24;;;;;;;1.98;1.20;;;;;;;19.44;78.84;97118.34;4377499;32;20414;-82
2023/07/26 06:34:50;;;;;;;1.80;1.00;;;;;;;19.34;78.70;97111.34;4375392;32;20525;-81
2023/07/26 06:37:28;;;;;;;1.83;1.00;;;;;;;18.81;81.88;97124.12;4377934;32;20142;-80
2023/07/26 06:39:55;;;;;;;3.20;1.10;;;;;;;19.54;79.26;97122.56;4376546;32;20083;-80
2023/07/26 06:42:22;;;;;;;1.85;1.00;;;;;;;19.21;81.53;97126.53;4378335;32;20146;-81
2023/07/26 06:44:49;;;;;;;4.12;1.30;;;;;;;19.42;80.38;97125.50;4373633;32;20083;-79
2023/07/26 06:47:17;;;;;;;3.15;1.20;;;;;;;19.63;80.63;97139.25;4371079;32;20098;-80
2023/07/26 06:49:44;;;;;;;2.33;1.05;;;;;;;19.14;82.51;97146.38;4372831;32;20074;-79
2023/07/26 06:52:11;;;;;;;2.45;1.10;;;;;;;19.31;81.37;97139.59;4367559;32;20090;-80
2023/07/26 06:54:38;;;;;;;3.17;1.20;;;;;;;19.37;82.08;97146.88;4368272;32;20135;-80
2023/07/26 06:57:06;;;;;;;1.83;1.10;;;;;;;19.17;83.96;97148.72;4370744;32;20100;-80
2023/07/26 06:59:33;;;;;;;4.28;1.23;;;;;;;19.33;81.36;97141.09;4372217;32;20055;-79
2023/07/26 07:02:00;;;;;;;2.28;1.20;;;;;;;18.92;84.59;97152.72;4370682;32;20055;-80
2023/07/26 07:04:26;;;;;;;3.47;1.30;;;;;;;18.98;84.55;97156.59;4371300;32;20102;-80
2023/07/26 07:06:53;;;;;;;2.75;1.30;;;;;;;18.83;85.61;97131.84;4369149;32;20089;-79
2023/07/26 07:09:24;;;;;;;4.55;1.45;;;;;;;18.66;85.14;97157.69;4367170;32;20050;-79
2023/07/26 07:11:50;;;;;;;6.03;1.30;;;;;;;19.01;84.15;97154.50;4365940;32;20059;-79
2023/07/26 07:14:18;;;;;;;3.50;1.20;;;;;;;19.28;83.00;97152.97;4366744;32;20475;-80
2023/07/26 07:16:46;;;;;;;4.10;1.30;;;;;;;18.84;86.15;97157.00;4366353;32;20151;-79
2023/07/26 07:19:12;;;;;;;3.25;1.27;;;;;;;19.16;84.07;97165.37;4368534;32;20134;-79
2023/07/26 07:21:41;;;;;;;3.87;1.42;;;;;;;19.12;83.56;97174.44;4370167;32;20103;-79
2023/07/26 07:24:08;;;;;;;3.50;1.48;;;;;;;18.87;85.55;97164.56;4371267;32;20135;-80
2023/07/26 07:26:35;;;;;;;3.12;1.50;;;;;;;19.03;85.11;97172.66;4371754;32;20147;-79
2023/07/26 07:29:05;;;;;;;3.60;1.55;;;;;;;18.37;88.63;97156.81;4375898;32;20122;-78
2023/07/26 07:31:32;;;;;;;5.40;1.80;;;;;;;19.37;84.68;97155.56;4380480;32;20055;-79
2023/07/26 07:34:00;;;;;;;4.00;1.70;;;;;;;19.50;84.42;97151.78;4376332;32;20102;-79
2023/07/26 07:36:27;;;;;;;3.50;1.52;;;;;;;19.17;84.51;97153.13;4374858;32;20094;-79
2023/07/26 07:38:54;;;;;;;4.72;1.42;;;;;;;19.38;85.03;97169.44;4376708;32;20068;-80
2023/07/26 07:41:21;;;;;;;3.28;1.52;;;;;;;19.67;83.82;97165.94;4379338;32;20095;-79
2023/07/26 07:43:48;;;;;;;6.05;1.80;;;;;;;19.84;83.97;97175.66;4379125;32;20096;-79
2023/07/26 07:46:15;;;;;;;4.85;1.90;;;;;;;19.70;82.61;97174.34;4379037;32;20156;-79
2023/07/26 07:48:42;;;;;;;5.10;1.70;;;;;;;19.40;85.01;97179.78;4377013;32;20147;-79
2023/07/26 07:51:09;;;;;;;2.55;1.58;;;;;;;19.19;86.94;97191.22;4374889;32;20153;-79
2023/07/26 07:53:36;;;;;;;3.53;1.83;;;;;;;19.23;84.42;97195.19;4373909;32;20118;-79
2023/07/26 07:56:03;;;;;;;5.18;1.90;;;;;;;18.86;87.52;97196.91;4373233;32;20101;-79
2023/07/26 07:58:36;;;;;;;4.30;1.70;;;;;;;18.92;87.22;97201.56;4375191;32;20090;-79
2023/07/26 08:01:03;;;;;;;3.28;2.10;;;;;;;18.77;87.39;97199.38;4376763;32;20874;-79
2023/07/26 08:03:30;;;;;;;4.37;2.00;;;;;;;18.92;87.61;97201.56;4374839;32;20083;-78
2023/07/26 08:05:57;;;;;;;4.20;1.85;;;;;;;18.85;87.67;97205.72;4369486;32;20095;-78
2023/07/26 08:08:24;;;;;;;3.60;1.73;;;;;;;19.02;86.34;97216.28;4366908;32;20103;-78
2023/07/26 08:10:51;;;;;;;4.62;1.62;;;;;;;18.99;86.32;97221.78;4366896;32;20070;-79
2023/07/26 08:13:18;;;;;;;3.33;1.80;;;;;;;18.66;86.86;97220.41;4367508;32;20084;-80
2023/07/26 08:15:45;;;;;;;5.32;2.00;;;;;;;18.90;86.29;97232.25;4369276;32;20146;-79
2023/07/26 08:18:12;;;;;;;3.12;1.80;;;;;;;19.12;85.88;97234.56;4372023;32;20110;-79
2023/07/26 08:20:39;;;;;;;3.00;1.65;;;;;;;18.96;86.53;97227.31;4376970;32;20071;-78
2023/07/26 08:23:06;;;;;;;2.22;1.35;;;;;;;19.05;84.06;97236.94;4373346;32;20147;-79
2023/07/26 08:25:33;;;;;;;4.43;1.80;;;;;;;18.84;85.87;97228.41;4371708;32;20083;-79
2023/07/26 08:28:01;;;;;;;4.35;1.80;;;;;;;18.92;85.13;97217.25;4373488;32;20071;-79
2023/07/26 08:30:28;;;;;;;2.95;1.60;;;;;;;18.21;90.77;97231.28;4369832;32;20078;-80
2023/07/26 08:32:55;;;;;;;3.50;1.52;;;;;;;18.89;86.46;97234.03;4373115;32;20072;-79
2023/07/26 08:35:22;;;;;;;4.62;1.50;;;;;;;18.83;85.90;97234.59;4372353;32;20119;-79
2023/07/26 08:37:52;;;;;;;2.97;1.60;;;;;;;18.81;85.36;97241.72;4373652;32;20115;-79
2023/07/26 08:40:20;;;;;;;2.87;1.50;;;;;;;18.62;86.70;97234.69;4377444;32;20077;-79
2023/07/26 08:42:48;;;;;;;1.77;1.45;;;;;;;18.43;86.83;97237.25;4376967;32;20106;-79
2023/07/26 08:45:16;;;;;;;3.85;1.70;;;;;;;19.02;83.76;97247.66;4376040;32;20131;-81
2023/07/26 08:47:43;;;;;;;3.62;1.50;;;;;;;19.41;81.21;97239.78;4373803;32;20118;-81
2023/07/26 08:50:10;;;;;;;2.62;1.40;;;;;;;19.08;82.10;97238.44;4376203;32;20063;-81
2023/07/26 08:52:37;;;;;;;1.98;1.37;;;;;;;19.77;79.86;97246.06;4378392;32;20123;-80
2023/07/26 08:55:06;;;;;;;3.35;1.70;;;;;;;19.45;81.33;97253.41;4377274;32;20077;-79
2023/07/26 08:57:33;;;;;;;2.58;1.48;;;;;;;19.89;77.68;97262.44;4378113;32;20059;-79
2023/07/26 09:00:00;;;;;;;4.12;1.50;;;;;;;19.79;78.97;97286.03;4378254;32;20051;-80
2023/07/26 09:02:27;;;;;;;2.87;1.30;;;;;;;19.19;81.51;97280.13;4377891;32;20052;-80
2023/07/26 09:04:56;;;;;;;2.50;1.48;;;;;;;19.18;80.96;97280.28;4378039;32;20075;-80
2023/07/26 09:07:29;;;;;;;4.03;1.58;;;;;;;19.31;79.48;97294.72;4378452;32;20067;-81
2023/07/26 09:09:56;;;;;;;3.00;1.60;;;;;;;19.02;81.10;97294.72;4376886;32;20104;-80
2023/07/26 09:12:25;;;;;;;3.12;1.50;;;;;;;18.88;81.32;97287.28;4376849;32;20119;-80
2023/07/26 09:14:54;;;;;;;4.07;1.60;;;;;;;18.58;80.99;97303.81;4376432;32;20063;-80
2023/07/26 09:17:21;;;;;;;3.72;1.92;;;;;;;18.83;79.98;97301.72;4376561;32;20091;-79
2023/07/26 09:19:49;;;;;;;3.15;1.77;;;;;;;19.01;80.23;97311.34;4374426;32;20134;-80
2023/07/26 09:22:18;;;;;;;3.30;1.70;;;;;;;19.60;75.85;97317.47;4372958;32;20072;-80
2023/07/26 09:24:49;;;;;;;4.47;1.70;;;;;;;19.76;75.94;97324.72;4372757;32;20147;-80
2023/07/26 09:27:17;;;;;;;4.22;1.98;;;;;;;19.81;73.52;97327.78;4373541;32;20106;-79
2023/07/26 09:29:54;;;;;;;3.17;1.75;;;;;;;19.96;73.11;97334.19;4374873;32;20059;-81
2023/07/26 09:32:28;;;;;;;3.97;1.85;;;;;;;20.12;71.72;97326.59;4376102;32;20055;-81
2023/07/26 09:34:59;;;;;;;3.80;2.00;;;;;;;19.74;73.91;97337.12;4374746;32;20071;-80
2023/07/26 09:37:27;;;;;;;4.35;2.00;;;;;;;20.50;69.25;97343.16;4377443;32;20082;-81
2023/07/26 09:39:54;;;;;;;5.30;2.03;;;;;;;20.13;70.95;97354.44;4376801;32;20067;-81
2023/07/26 09:42:21;;;;;;;6.00;2.15;;;;;;;19.85;71.95;97350.91;4376926;32;20075;-81
2023/07/26 09:44:56;;;;;;;4.93;2.15;;;;;;;19.72;72.91;97353.00;4377530;32;20107;-81
2023/07/26 09:47:35;;;;;;;4.43;2.10;;;;;;;19.22;74.82;97349.63;4375192;32;20088;-80
2023/07/26 09:50:06;;;;;;;3.67;1.80;;;;;;;18.72;77.42;97345.28;4375544;32;20056;-81
2023/07/26 09:52:36;;;;;;;7.95;2.08;;;;;;;19.88;73.96;97350.63;4375569;32;20110;-81
2023/07/26 09:55:03;;;;;;;3.33;1.90;;;;;;;20.22;71.57;97348.34;4375794;32;20108;-81
2023/07/26 09:57:38;;;;;;;4.30;2.20;;;;;;;20.20;70.43;97354.66;4372639;32;20071;-81
2023/07/26 10:00:07;;;;;;;4.18;2.00;;;;;;;20.51;69.70;97336.94;4372698;32;20154;-82
2023/07/26 10:02:35;;;;;;;5.50;2.05;;;;;;;20.80;69.45;97340.25;4372201;32;20088;-82
2023/07/26 10:05:03;;;;;;;4.62;2.10;;;;;;;20.03;72.33;97345.78;4369157;32;20115;-82
2023/07/26 10:07:31;;;;;;;4.25;2.20;;;;;;;21.22;67.71;97342.34;4370751;32;20409;-81
2023/07/26 10:10:01;;;;;;;5.78;1.80;;;;;;;21.31;68.14;97346.72;4371772;32;20090;-81
2023/07/26 10:12:29;;;;;;;4.53;1.98;;;;;;;21.62;64.30;97338.47;4372998;32;20105;-81
2023/07/26 10:14:56;;;;;;;4.93;2.10;;;;;;;21.45;65.58;97341.94;4370166;32;20103;-81
2023/07/26 10:17:26;;;;;;;5.70;2.30;;;;;;;21.36;65.48;97328.72;4367108;32;20107;-80
2023/07/26 10:19:54;;;;;;;5.15;2.28;;;;;;;22.07;64.29;97340.13;4365208;32;20095;-81
2023/07/26 10:22:22;;;;;;;4.82;2.30;;;;;;;22.57;61.95;97340.25;4369064;32;20087;-81
2023/07/26 10:24:49;;;;;;;7.05;2.17;;;;;;;22.15;62.86;97330.50;4369212;32;20091;-82
2023/07/26 10:27:16;;;;;;;5.22;2.10;;;;;;;21.77;64.28;97342.19;4371776;32;20085;-81
2023/07/26 10:29:44;;;;;;;4.80;2.05;;;;;;;21.34;64.64;97330.69;4368311;32;20097;-80
2023/07/26 10:32:11;;;;;;;5.95;2.00;;;;;;;21.20;66.52;97328.56;4364056;32;20087;-82
2023/07/26 10:34:40;;;;;;;4.60;2.10;;;;;;;21.29;64.63;97329.50;4364226;32;20119;-83
2023/07/26 10:37:19;;;;;;;6.28;2.00;;;;;;;21.04;66.52;97338.88;4366310;32;20459;-83
2023/07/26 10:39:48;;;;;;;4.25;2.00;;;;;;;21.37;64.69;97345.28;4364621;32;20067;-83
2023/07/26 10:42:26;;;;;;;4.93;2.15;;;;;;;21.25;65.01;97342.03;4364594;32;20141;-83
2023/07/26 10:44:59;;;;;;;5.37;2.25;;;;;;;21.58;64.45;97342.34;4365557;32;20395;-84
2023/07/26 10:47:26;;;;;;;6.80;2.25;;;;;;;22.46;62.26;97333.47;4365131;32;20098;-83
2023/07/26 10:49:55;;;;;;;5.60;2.20;;;;;;;21.79;62.69;97334.16;4364795;32;20090;-83
2023/07/26 10:52:22;;;;;;;5.87;2.25;;;;;;;21.55;61.83;97325.13;4365074;32;20095;-83
2023/07/26 10:54:50;;;;;;;4.50;2.12;;;;;;;21.31;62.40;97351.16;4364907;32;20443;-83
2023/07/26 10:57:27;;;;;;;3.90;2.15;;;;;;;21.59;62.06;97354.53;4365317;32;20114;-82
2023/07/26 11:00:10;;;;;;;5.20;2.00;;;;;;;20.52;66.64;97343.84;4365770;32;20098;-83
2023/07/26 11:02:48;;;;;;;4.30;2.08;;;;;;;21.23;63.26;97345.78;4365551;32;20186;-83
2023/07/26 11:05:22;;;;;;;4.93;2.20;;;;;;;21.17;64.35;97349.03;4365797;32;20121;-82
2023/07/26 11:07:58;;;;;;;5.55;2.00;;;;;;;21.67;63.29;97346.72;4367611;32;20153;-83
2023/07/26 11:10:35;;;;;;;4.78;2.20;;;;;;;21.58;63.85;97347.59;4370640;32;20133;-83
2023/07/26 11:13:12;;;;;;;;;;;;;;;21.77;62.63;97351.88;4371520;32;20525;-82
2023/07/26 11:15:41;;;;;;;4.07;2.35;;;;;;;22.02;62.61;97342.38;4366454;32;19993;-83
2023/07/26 11:18:28;;;;;;;5.82;2.30;;;;;;;22.39;59.92;97348.22;4366112;32;20095;-83
2023/07/26 11:20:55;;;;;;;5.35;2.22;;;;;;;22.62;59.08;97345.84;4366230;32;20101;-82
2023/07/26 11:23:27;;;;;;;5.57;2.45;;;;;;;21.78;60.38;97337.75;4367218;32;20118;-82
2023/07/26 11:25:59;;;;;;;4.05;2.17;;;;;;;21.90;58.93;97347.03;4366213;32;20083;-81
2023/07/26 11:28:31;;;;;;;5.95;2.35;;;;;;;21.76;59.93;97353.66;4370866;32;20458;-81
2023/07/26 11:30:59;;;;;;;4.40;2.10;;;;;;;21.96;59.90;97364.81;4369760;32;20091;-82
2023/07/26 11:33:29;;;;;;;4.07;2.30;;;;;;;21.15;61.42;97343.91;4370229;32;20079;-82
2023/07/26 11:35:57;;;;;;;6.95;2.50;;;;;;;21.71;61.08;97355.13;4369419;32;20756;-82
2023/07/26 11:38:24;;;;;;;7.03;2.90;;;;;;;21.26;61.30;97361.25;4371462;32;20124;-81